Time;durP1;ratioP1;P1;durP2;ratioP2;P2;SDS_P1;SDS_P2;PMS_P1;PMS_P2;Temp;Humidity;BMP_temperature;BMP_pressure;BME280_temperature;BME280_humidity;BME280_pressure;Samples;Min_cycle;Max_cycle;Signal;HPM_P1;HPM_P2
2021/07/17 00:00:30;;;;;;;45.58;20.27;;;;;;;19.57;89.18;94430.45;1634637;86;21153;-54
2021/07/17 00:03:00;;;;;;;31.93;19.02;;;;;;;19.57;89.50;94436.69;1609472;87;21523;-54
2021/07/17 00:05:26;;;;;;;30.05;18.10;;;;;;;19.57;89.55;94436.69;1585814;88;20998;-55
2021/07/17 00:07:53;;;;;;;29.60;16.82;;;;;;;19.54;89.62;94431.48;1635210;87;21113;-55
2021/07/17 00:10:24;;;;;;;30.15;17.17;;;;;;;19.56;89.59;94440.09;1636295;86;20966;-55
2021/07/17 00:12:52;;;;;;;28.70;15.83;;;;;;;19.54;89.63;94432.13;1630956;87;21094;-55
2021/07/17 00:15:23;;;;;;;28.15;17.00;;;;;;;19.52;89.85;94431.89;1627053;88;21466;-55
2021/07/17 00:17:50;;;;;;;27.60;17.75;;;;;;;19.49;89.94;94433.66;1625919;86;21087;-53
2021/07/17 00:20:18;;;;;;;23.77;17.17;;;;;;;19.49;90.19;94418.94;1630357;86;21160;-54
2021/07/17 00:22:44;;;;;;;27.05;17.45;;;;;;;19.49;90.39;94423.89;1630322;87;21013;-54
2021/07/17 00:25:16;;;;;;;29.55;16.90;;;;;;;19.49;90.60;94418.31;1630678;85;21040;-55
2021/07/17 00:27:43;;;;;;;26.33;17.57;;;;;;;19.58;90.88;94430.57;1629929;86;21562;-54
2021/07/17 00:30:12;;;;;;;28.23;18.12;;;;;;;19.66;90.74;94428.78;1630228;86;21084;-55
2021/07/17 00:32:38;;;;;;;28.62;18.37;;;;;;;19.71;90.53;94429.39;1631237;87;21225;-55
2021/07/17 00:35:06;;;;;;;31.30;17.52;;;;;;;19.74;90.29;94427.61;1640686;85;21075;-56
2021/07/17 00:37:33;;;;;;;23.10;15.43;;;;;;;19.74;90.09;94428.36;1630669;86;21087;-56
2021/07/17 00:40:01;;;;;;;27.70;15.78;;;;;;;19.75;89.97;94430.53;1630954;87;21130;-55
2021/07/17 00:42:31;;;;;;;24.20;15.95;;;;;;;19.71;89.82;94429.39;1630105;86;21048;-55
2021/07/17 00:44:58;;;;;;;20.25;14.85;;;;;;;19.68;89.84;94422.67;1632313;85;21509;-55
2021/07/17 00:47:25;;;;;;;23.65;15.23;;;;;;;19.67;89.86;94426.11;1630703;86;21618;-56
2021/07/17 00:49:52;;;;;;;24.45;15.10;;;;;;;19.66;89.76;94419.02;1630658;86;21119;-56
2021/07/17 00:52:19;;;;;;;28.20;14.20;;;;;;;19.64;89.79;94418.77;1629807;86;21006;-56
2021/07/17 00:54:46;;;;;;;20.77;14.53;;;;;;;19.63;89.87;94420.05;1634979;87;21447;-55
2021/07/17 00:57:12;;;;;;;24.52;15.28;;;;;;;19.62;89.94;94417.13;1626779;88;21566;-55
2021/07/17 00:59:40;;;;;;;23.22;13.88;;;;;;;19.64;90.09;94415.98;1632253;87;21035;-55
2021/07/17 01:02:06;;;;;;;20.23;15.03;;;;;;;19.68;90.10;94414.30;1638379;87;21053;-56
2021/07/17 01:04:33;;;;;;;22.95;13.90;;;;;;;19.69;90.04;94409.61;1638648;87;21030;-56
2021/07/17 01:06:59;;;;;;;22.55;14.68;;;;;;;19.71;90.18;94419.62;1632374;86;21095;-55
2021/07/17 01:09:27;;;;;;;20.02;12.98;;;;;;;19.70;90.11;94415.31;1635561;87;21150;-55
2021/07/17 01:11:56;;;;;;;18.73;12.68;;;;;;;19.73;90.07;94410.09;1629706;87;21558;-55
2021/07/17 01:14:24;;;;;;;23.77;12.68;;;;;;;19.75;90.06;94416.56;1634954;87;21513;-57
2021/07/17 01:16:51;;;;;;;15.70;12.60;;;;;;;19.75;90.07;94418.70;1643431;85;21124;-56
2021/07/17 01:19:18;;;;;;;21.27;14.70;;;;;;;19.76;90.06;94418.09;1663778;85;21022;-56
2021/07/17 01:21:45;;;;;;;18.07;12.63;;;;;;;19.75;89.99;94415.92;1636694;85;21776;-55
2021/07/17 01:24:11;;;;;;;16.27;12.28;;;;;;;19.76;89.87;94418.83;1665086;84;21035;-55
2021/07/17 01:26:41;;;;;;;17.60;12.70;;;;;;;19.75;89.74;94414.52;1657878;85;21029;-56
2021/07/17 01:29:08;;;;;;;19.07;13.18;;;;;;;19.72;89.82;94425.98;1660752;85;21014;-55
2021/07/17 01:31:35;;;;;;;20.48;12.90;;;;;;;19.72;90.06;94419.00;1654805;85;21018;-55
2021/07/17 01:34:03;;;;;;;18.48;13.10;;;;;;;19.76;89.95;94425.81;1654698;85;21215;-55
2021/07/17 01:36:29;;;;;;;22.27;15.15;;;;;;;19.76;89.89;94416.04;1654850;86;21019;-55
2021/07/17 01:38:58;;;;;;;20.30;13.08;;;;;;;19.76;89.83;94411.84;1665337;85;21474;-56
2021/07/17 01:41:25;;;;;;;23.47;12.07;;;;;;;19.75;89.83;94420.10;1655018;86;21042;-55
2021/07/17 01:43:55;;;;;;;20.02;12.05;;;;;;;19.75;89.89;94423.55;1654807;86;21133;-55
2021/07/17 01:46:20;;;;;;;18.25;11.60;;;;;;;19.76;89.81;94421.63;1661520;85;21220;-56
2021/07/17 01:48:52;;;;;;;14.95;12.43;;;;;;;19.76;89.69;94424.41;1657173;85;21167;-55
2021/07/17 01:51:19;;;;;;;18.40;13.28;;;;;;;19.76;89.79;94423.02;1670619;85;21120;-55
2021/07/17 01:53:48;;;;;;;21.90;13.43;;;;;;;19.75;89.68;94424.29;1639141;85;21577;-57
2021/07/17 01:56:16;;;;;;;20.10;12.95;;;;;;;19.73;89.70;94422.66;1629821;86;21041;-55
2021/07/17 01:58:45;;;;;;;15.32;12.05;;;;;;;19.70;89.75;94425.73;1604680;87;21538;-55
2021/07/17 02:01:11;;;;;;;18.45;12.68;;;;;;;19.67;89.89;94423.32;1638357;87;21466;-55
2021/07/17 02:03:47;;;;;;;19.57;12.13;;;;;;;19.69;90.05;94424.96;1629553;87;21016;-54
2021/07/17 02:06:14;;;;;;;19.45;13.05;;;;;;;19.75;89.96;94421.50;1630819;87;21103;-55
2021/07/17 02:08:41;;;;;;;21.12;13.78;;;;;;;19.79;89.74;94417.83;1630415;87;21112;-55
2021/07/17 02:11:09;;;;;;;19.05;13.13;;;;;;;19.79;89.72;94424.03;1630301;87;21133;-55
2021/07/17 02:13:36;;;;;;;20.17;12.65;;;;;;;19.78;89.77;94424.66;1630460;87;21070;-56
2021/07/17 02:16:04;;;;;;;17.30;12.80;;;;;;;19.80;89.76;94427.72;1608552;87;21573;-55
2021/07/17 02:18:34;;;;;;;16.55;11.95;;;;;;;19.82;89.69;94425.16;1627079;86;21032;-55
2021/07/17 02:21:04;;;;;;;20.92;14.43;;;;;;;19.84;89.70;94435.80;1630901;86;21122;-55
2021/07/17 02:23:31;;;;;;;22.62;13.75;;;;;;;19.83;89.73;94427.30;1630159;85;21588;-55
2021/07/17 02:25:58;;;;;;;24.35;13.53;;;;;;;19.84;89.74;94431.62;1630932;86;21067;-56
2021/07/17 02:28:25;;;;;;;23.75;12.50;;;;;;;19.84;89.67;94440.77;1631249;86;21465;-54
2021/07/17 02:30:52;;;;;;;18.48;12.20;;;;;;;19.88;89.54;94441.25;1630110;86;21549;-56
2021/07/17 02:33:19;;;;;;;23.05;13.03;;;;;;;19.89;89.23;94446.21;1630522;86;21068;-55
2021/07/17 02:35:46;;;;;;;21.50;13.15;;;;;;;19.86;89.18;94445.20;1632436;86;21099;-56
2021/07/17 02:38:13;;;;;;;16.32;11.70;;;;;;;19.88;89.14;94448.23;1667814;84;21036;-55
2021/07/17 02:40:40;;;;;;;20.37;12.68;;;;;;;19.85;89.03;94440.89;1631734;86;21011;-55
2021/07/17 02:43:08;;;;;;;23.73;12.68;;;;;;;19.85;89.00;94448.48;1631328;86;21044;-55
2021/07/17 02:45:35;;;;;;;16.12;11.68;;;;;;;19.86;88.83;94450.78;1631034;87;21036;-56
2021/07/17 02:48:02;;;;;;;19.62;12.63;;;;;;;19.87;88.76;94443.92;1626253;87;21544;-56
2021/07/17 02:50:29;;;;;;;20.95;13.75;;;;;;;19.90;88.79;94444.94;1630056;86;21004;-56
2021/07/17 02:52:56;;;;;;;21.30;14.55;;;;;;;19.92;88.75;94439.59;1630414;87;21544;-55
2021/07/17 02:55:23;;;;;;;24.87;13.28;;;;;;;19.96;88.62;94438.68;1619625;87;21062;-55
2021/07/17 02:57:51;;;;;;;20.27;13.90;;;;;;;19.99;88.53;94442.61;1630989;86;21461;-55
2021/07/17 03:00:18;;;;;;;17.92;12.35;;;;;;;20.07;88.19;94444.99;1630979;87;21149;-55
2021/07/17 03:02:46;;;;;;;20.85;13.25;;;;;;;20.10;87.78;94450.20;1630610;86;21020;-56
2021/07/17 03:05:13;;;;;;;21.87;13.43;;;;;;;20.10;87.62;94448.15;1630788;86;21039;-56
2021/07/17 03:07:40;;;;;;;23.40;15.45;;;;;;;20.11;87.43;94448.27;1624238;85;21059;-55
2021/07/17 03:10:08;;;;;;;28.47;15.25;;;;;;;20.09;87.26;94448.03;1630260;86;21036;-55
2021/07/17 03:12:35;;;;;;;26.82;16.25;;;;;;;20.07;87.04;94447.79;1631046;87;21182;-54
2021/07/17 03:15:01;;;;;;;22.13;13.68;;;;;;;20.08;86.88;94445.11;1630240;86;21059;-55
2021/07/17 03:17:29;;;;;;;18.85;12.88;;;;;;;20.02;86.87;94443.00;1645225;86;20970;-55
2021/07/17 03:19:55;;;;;;;19.40;13.78;;;;;;;20.02;86.98;94435.24;1660244;85;21447;-56
2021/07/17 03:22:23;;;;;;;32.65;18.95;;;;;;;20.02;87.07;94447.19;1659964;85;21506;-56
2021/07/17 03:24:50;;;;;;;43.20;23.15;;;;;;;20.05;87.09;94450.97;1663677;85;21133;-55
2021/07/17 03:27:17;;;;;;;44.42;21.15;;;;;;;20.08;86.95;94452.75;1660927;85;21590;-55
2021/07/17 03:29:44;;;;;;;35.65;18.27;;;;;;;20.09;86.94;94450.08;1669942;85;21057;-55
2021/07/17 03:32:11;;;;;;;23.67;14.63;;;;;;;20.11;87.00;94455.25;1670188;85;21035;-54
2021/07/17 03:34:38;;;;;;;20.27;14.43;;;;;;;20.15;87.01;94454.34;1661541;85;21015;-54
2021/07/17 03:37:06;;;;;;;23.95;14.90;;;;;;;20.18;87.11;94458.27;1638135;86;21162;-55
2021/07/17 03:39:32;;;;;;;24.10;13.62;;;;;;;20.21;87.03;94448.84;1659554;84;21092;-53
2021/07/17 03:41:59;;;;;;;21.27;13.48;;;;;;;20.27;86.91;94455.80;1638032;85;21097;-56
2021/07/17 03:44:27;;;;;;;20.60;12.70;;;;;;;20.31;86.98;94456.28;1670957;85;21087;-54
2021/07/17 03:46:55;;;;;;;24.15;12.65;;;;;;;20.36;86.89;94457.66;1667568;85;21108;-57
2021/07/17 03:49:23;;;;;;;20.32;13.65;;;;;;;20.40;86.71;94453.20;1635173;85;21796;-57
2021/07/17 03:51:49;;;;;;;24.12;13.65;;;;;;;20.43;86.41;94455.72;1637797;85;21101;-55
2021/07/17 03:54:16;;;;;;;19.85;12.47;;;;;;;20.45;86.03;94453.79;1674572;85;21026;-57
2021/07/17 03:56:45;;;;;;;22.10;13.28;;;;;;;20.48;85.43;94452.75;1671758;85;21061;-57
2021/07/17 03:59:11;;;;;;;20.90;13.60;;;;;;;20.48;85.20;94446.53;1671168;85;20974;-54
2021/07/17 04:01:38;;;;;;;22.60;13.95;;;;;;;20.51;85.08;94451.70;1658999;85;21156;-56
2021/07/17 04:04:07;;;;;;;29.80;15.58;;;;;;;20.51;84.78;94446.12;1657941;85;21494;-56
2021/07/17 04:06:35;;;;;;;21.27;13.70;;;;;;;20.50;84.57;94446.00;1664567;84;21073;-55
2021/07/17 04:09:03;;;;;;;16.65;12.45;;;;;;;20.50;84.35;94446.77;1672782;85;21053;-55
2021/07/17 04:11:30;;;;;;;23.05;14.13;;;;;;;20.53;84.08;94453.38;1668344;85;21060;-55
2021/07/17 04:13:57;;;;;;;20.80;13.00;;;;;;;20.53;83.82;94450.58;1644918;85;21210;-55
2021/07/17 04:16:24;;;;;;;30.70;13.35;;;;;;;20.53;83.61;94445.73;1668027;85;21018;-55
2021/07/17 04:18:51;;;;;;;19.15;12.47;;;;;;;20.52;83.47;94449.06;1654896;86;21175;-54
2021/07/17 04:21:17;;;;;;;18.05;12.50;;;;;;;20.55;83.32;94448.02;1668185;85;21737;-55
2021/07/17 04:23:44;;;;;;;21.75;12.15;;;;;;;20.55;83.07;94444.57;1638287;84;21060;-55
2021/07/17 04:26:11;;;;;;;25.60;13.80;;;;;;;20.58;83.13;94450.52;1671051;85;21230;-55
2021/07/17 04:28:38;;;;;;;16.97;11.90;;;;;;;20.60;82.82;94454.20;1654662;86;20975;-55
2021/07/17 04:31:05;;;;;;;19.10;11.45;;;;;;;20.59;82.51;94459.02;1654705;86;21517;-56
2021/07/17 04:33:32;;;;;;;16.62;10.95;;;;;;;20.55;82.32;94455.01;1654912;85;20995;-55
2021/07/17 04:35:59;;;;;;;13.35;11.18;;;;;;;20.53;82.38;94457.56;1655158;86;21458;-55
2021/07/17 04:38:25;;;;;;;17.85;11.95;;;;;;;20.52;82.37;94453.25;1654949;85;21058;-55
2021/07/17 04:40:52;;;;;;;18.57;13.45;;;;;;;20.49;82.60;94448.67;1658148;84;21109;-56
2021/07/17 04:43:19;;;;;;;20.40;12.93;;;;;;;20.54;82.71;94451.44;1667305;85;21180;-55
2021/07/17 04:45:45;;;;;;;13.28;10.43;;;;;;;20.58;82.46;94446.98;1655152;84;21046;-55
2021/07/17 04:48:12;;;;;;;18.30;10.23;;;;;;;20.63;82.49;94446.17;1668002;85;21070;-56
2021/07/17 04:50:39;;;;;;;18.70;11.40;;;;;;;20.68;82.42;94448.16;1657395;85;39298;-55
2021/07/17 04:53:06;;;;;;;14.23;11.73;;;;;;;20.70;82.23;94451.22;1667169;85;21037;-54
2021/07/17 04:55:33;;;;;;;22.15;12.37;;;;;;;20.71;82.16;94450.69;1667401;85;21570;-55
2021/07/17 04:58:00;;;;;;;17.65;11.43;;;;;;;20.73;82.13;94450.18;1656967;85;21030;-56
2021/07/17 05:00:26;;;;;;;22.35;12.33;;;;;;;20.74;81.86;94461.48;1669102;85;21581;-55
2021/07/17 05:02:55;;;;;;;15.23;11.93;;;;;;;20.72;82.00;94452.86;1672806;85;21137;-57
2021/07/17 05:05:22;;;;;;;17.20;12.45;;;;;;;20.80;82.06;94457.99;1671274;85;21216;-56
2021/07/17 05:07:50;;;;;;;23.42;12.15;;;;;;;20.86;81.91;94460.90;1661475;85;21030;-56
2021/07/17 05:10:22;;;;;;;15.60;11.28;;;;;;;20.97;81.97;94458.65;1665791;85;21047;-57
2021/07/17 05:12:50;;;;;;;17.75;12.00;;;;;;;21.10;81.23;94463.00;1668993;85;20986;-56
2021/07/17 05:15:17;;;;;;;16.00;10.68;;;;;;;21.19;81.01;94466.84;1637205;86;21815;-56
2021/07/17 05:17:44;;;;;;;17.95;12.25;;;;;;;21.29;80.28;94455.45;1669548;85;20966;-55
2021/07/17 05:20:12;;;;;;;16.02;11.03;;;;;;;21.30;79.44;94459.76;1671078;85;21081;-55
2021/07/17 05:22:39;;;;;;;18.57;12.60;;;;;;;21.21;79.21;94460.08;1666403;85;21060;-56
2021/07/17 05:25:07;;;;;;;24.65;12.23;;;;;;;21.16;79.25;94463.70;1657085;85;21530;-58
2021/07/17 05:27:34;;;;;;;24.60;13.43;;;;;;;21.11;79.43;94465.26;1658939;85;21796;-56
2021/07/17 05:30:03;;;;;;;22.60;12.55;;;;;;;21.08;79.64;94468.36;1672016;85;21060;-56
2021/07/17 05:32:30;;;;;;;16.30;12.18;;;;;;;21.07;79.82;94468.98;1665033;85;21021;-56
2021/07/17 05:34:57;;;;;;;14.23;10.63;;;;;;;21.10;79.61;94469.99;1654670;85;21003;-56
2021/07/17 05:37:25;;;;;;;16.42;11.22;;;;;;;21.09;79.42;94474.07;1658258;85;21066;-56
2021/07/17 05:39:52;;;;;;;14.47;10.80;;;;;;;21.03;79.42;94473.34;1659477;85;22609;-55
2021/07/17 05:42:19;;;;;;;24.67;13.85;;;;;;;20.93;79.82;94475.70;1669670;84;21395;-57
2021/07/17 05:44:46;;;;;;;16.42;12.18;;;;;;;20.92;80.19;94472.80;1674097;85;21131;-56
2021/07/17 05:47:13;;;;;;;13.45;11.28;;;;;;;20.98;80.26;94473.53;1668534;85;21041;-57
2021/07/17 05:49:40;;;;;;;22.37;13.50;;;;;;;21.04;80.11;94473.45;1665448;85;21023;-57
2021/07/17 05:52:07;;;;;;;24.32;15.93;;;;;;;21.05;80.00;94469.38;1656852;85;21780;-56
2021/07/17 05:54:34;;;;;;;15.75;11.73;;;;;;;21.08;79.82;94469.76;1664922;84;21096;-57
2021/07/17 05:57:02;;;;;;;17.40;11.28;;;;;;;21.13;79.73;94480.13;1666390;85;21033;-58
2021/07/17 05:59:29;;;;;;;24.00;12.40;;;;;;;21.17;79.44;94479.20;1663029;85;20994;-56
2021/07/17 06:01:56;;;;;;;14.13;10.45;;;;;;;21.20;79.06;94472.56;1668214;85;21041;-55
2021/07/17 06:04:23;;;;;;;11.95;9.53;;;;;;;21.19;79.18;94471.05;1639605;85;21144;-57
2021/07/17 06:06:50;;;;;;;18.05;11.38;;;;;;;21.19;79.00;94479.44;1667860;85;21104;-56
2021/07/17 06:09:16;;;;;;;14.78;10.60;;;;;;;21.13;79.06;94477.34;1670287;85;21131;-56
2021/07/17 06:11:43;;;;;;;17.75;11.22;;;;;;;21.15;79.02;94478.31;1674131;85;20985;-55
2021/07/17 06:14:09;;;;;;;14.55;11.38;;;;;;;21.18;79.07;94472.33;1674082;85;20993;-57
2021/07/17 06:16:36;;;;;;;20.90;13.88;;;;;;;21.32;79.00;94468.39;1660823;85;21125;-57
2021/07/17 06:19:03;;;;;;;14.80;11.65;;;;;;;21.50;78.47;94466.30;1655437;85;21085;-55
2021/07/17 06:21:31;;;;;;;17.55;13.00;;;;;;;21.68;78.19;94464.23;1629371;86;21057;-56
2021/07/17 06:24:00;;;;;;;15.53;11.00;;;;;;;21.90;77.32;94470.97;1629122;86;21034;-56
2021/07/17 06:26:26;;;;;;;17.87;12.15;;;;;;;22.03;76.59;94469.80;1629134;87;21021;-56
2021/07/17 06:28:53;;;;;;;23.87;12.13;;;;;;;22.10;75.96;94464.98;1628908;88;21160;-56
2021/07/17 06:31:21;;;;;;;17.55;11.60;;;;;;;22.15;76.00;94458.55;1626088;87;20978;-55
2021/07/17 06:33:47;;;;;;;18.77;10.95;;;;;;;22.32;75.90;94464.69;1653751;85;21266;-55
2021/07/17 06:36:17;;;;;;;21.50;12.70;;;;;;;22.41;75.13;94461.55;1629510;86;21536;-56
2021/07/17 06:38:45;;;;;;;16.45;12.85;;;;;;;22.46;74.53;94463.52;1608502;88;20990;-55
2021/07/17 06:41:12;;;;;;;18.52;12.30;;;;;;;22.46;74.40;94458.56;1630222;87;21771;-58
2021/07/17 06:43:39;;;;;;;17.23;11.25;;;;;;;22.47;74.26;94459.42;1629129;86;21220;-55
2021/07/17 06:46:06;;;;;;;11.83;10.45;;;;;;;22.43;74.13;94456.17;1631272;87;21157;-57
2021/07/17 06:48:32;;;;;;;14.78;11.30;;;;;;;22.44;74.16;94453.48;1628671;86;21116;-56
2021/07/17 06:50:59;;;;;;;17.30;12.53;;;;;;;22.44;74.10;94456.94;1629099;87;21592;-56
2021/07/17 06:53:26;;;;;;;17.98;12.68;;;;;;;22.42;74.32;94453.25;1628613;86;21099;-56
2021/07/17 06:55:53;;;;;;;21.85;12.58;;;;;;;22.40;75.11;94450.86;1657908;85;21237;-57
2021/07/17 06:58:20;;;;;;;17.67;11.45;;;;;;;22.38;75.99;94448.60;1630314;87;21476;-56
2021/07/17 07:00:46;;;;;;;12.20;9.85;;;;;;;22.39;76.08;94450.11;1631080;88;21561;-56
2021/07/17 07:03:13;;;;;;;18.80;12.03;;;;;;;22.37;76.09;94449.86;1628572;87;21124;-57
2021/07/17 07:05:39;;;;;;;16.80;12.88;;;;;;;22.34;76.57;94446.72;1629070;87;21129;-55
2021/07/17 07:08:06;;;;;;;17.90;12.13;;;;;;;22.37;76.61;94441.45;1629563;86;21570;-57
2021/07/17 07:10:33;;;;;;;16.95;11.78;;;;;;;22.45;76.88;94442.38;1629778;87;21096;-57
2021/07/17 07:13:01;;;;;;;20.40;15.75;;;;;;;22.51;76.42;94431.83;1631304;88;20982;-55
2021/07/17 07:15:30;;;;;;;15.95;12.47;;;;;;;22.61;76.60;94435.77;1647920;85;21085;-58
2021/07/17 07:17:57;;;;;;;18.05;12.37;;;;;;;22.72;75.96;94432.80;1653968;85;21173;-56
2021/07/17 07:20:24;;;;;;;16.20;11.43;;;;;;;22.76;75.83;94429.67;1667193;85;21164;-58
2021/07/17 07:22:50;;;;;;;16.02;12.30;;;;;;;22.81;75.35;94429.59;1670439;85;21257;-59
2021/07/17 07:25:17;;;;;;;14.75;11.55;;;;;;;22.88;75.45;94426.15;1665173;84;21517;-57
2021/07/17 07:27:45;;;;;;;15.03;12.65;;;;;;;22.96;75.26;94425.66;1634731;86;21034;-58
2021/07/17 07:30:13;;;;;;;29.10;13.65;;;;;;;23.05;75.18;94418.22;1668266;85;21384;-56
2021/07/17 07:32:40;;;;;;;26.48;13.20;;;;;;;23.16;75.14;94418.70;1661233;85;21061;-59
2021/07/17 07:35:07;;;;;;;19.90;12.78;;;;;;;23.33;74.53;94417.13;1664388;84;21141;-57
2021/07/17 07:37:34;;;;;;;19.95;13.48;;;;;;;23.51;73.78;94408.50;1673942;85;21053;-59
2021/07/17 07:40:01;;;;;;;18.37;12.00;;;;;;;23.64;73.47;94408.51;1668161;85;20986;-56
2021/07/17 07:42:28;;;;;;;16.57;12.18;;;;;;;23.71;72.90;94415.64;1654759;84;21136;-59
2021/07/17 07:44:55;;;;;;;14.58;11.95;;;;;;;23.83;72.58;94412.77;1655438;85;21081;-57
2021/07/17 07:47:23;;;;;;;15.32;11.50;;;;;;;23.94;72.26;94418.14;1659574;85;21482;-59
2021/07/17 07:49:52;;;;;;;17.77;11.60;;;;;;;24.02;71.32;94411.98;1654277;86;21159;-58
2021/07/17 07:52:18;;;;;;;20.02;11.85;;;;;;;24.13;70.92;94408.92;1657827;85;21034;-56
2021/07/17 07:54:47;;;;;;;18.92;10.03;;;;;;;24.25;70.38;94411.61;1654621;85;21006;-56
2021/07/17 07:57:15;;;;;;;14.20;9.28;;;;;;;24.42;67.97;94409.19;1664077;84;21212;-59
2021/07/17 07:59:42;;;;;;;17.60;10.18;;;;;;;24.60;67.12;94409.70;1657855;85;21038;-58
2021/07/17 08:02:09;;;;;;;13.15;10.28;;;;;;;24.77;66.40;94401.63;1657957;85;21017;-57
2021/07/17 08:04:35;;;;;;;18.92;10.03;;;;;;;24.95;65.91;94402.09;1654761;85;21018;-56
2021/07/17 08:07:03;;;;;;;11.38;8.93;;;;;;;25.12;64.67;94399.63;1661164;85;21030;-56
2021/07/17 08:09:31;;;;;;;19.15;9.00;;;;;;;25.28;64.57;94397.06;1629227;85;20985;-57
2021/07/17 08:11:57;;;;;;;26.55;9.75;;;;;;;25.44;64.46;94398.66;1672472;84;21128;-57
2021/07/17 08:14:24;;;;;;;12.78;8.68;;;;;;;25.64;64.16;94388.03;1670836;85;21009;-55
2021/07/17 08:16:51;;;;;;;19.70;9.13;;;;;;;25.82;62.94;94388.42;1656259;85;21037;-57
2021/07/17 08:19:18;;;;;;;13.68;8.80;;;;;;;25.93;61.91;94392.45;1660025;85;21224;-56
2021/07/17 08:21:46;;;;;;;17.75;8.95;;;;;;;26.01;61.45;94389.03;1665889;85;21109;-55
2021/07/17 08:24:12;;;;;;;18.27;8.95;;;;;;;26.14;61.21;94388.89;1668379;84;21006;-58
2021/07/17 08:26:43;;;;;;;10.55;9.05;;;;;;;26.30;60.85;94393.95;1674217;84;21057;-56
2021/07/17 08:29:10;;;;;;;14.93;7.78;;;;;;;26.48;60.17;94389.43;1643489;86;21117;-56
2021/07/17 08:31:38;;;;;;;8.78;7.00;;;;;;;26.66;57.79;94392.59;1663670;86;20976;-56
2021/07/17 08:34:05;;;;;;;10.55;7.17;;;;;;;26.78;54.91;94388.11;1660582;85;21058;-55
2021/07/17 08:36:32;;;;;;;14.75;7.00;;;;;;;26.89;55.42;94391.97;1654934;85;21450;-56
2021/07/17 08:38:59;;;;;;;13.10;7.85;;;;;;;27.03;54.92;94389.08;1654572;85;21043;-57
2021/07/17 08:41:27;;;;;;;13.75;7.33;;;;;;;27.16;53.18;94387.53;1661879;85;21082;-56
2021/07/17 08:43:55;;;;;;;11.63;6.67;;;;;;;27.28;52.62;94391.50;1654513;86;21143;-56
2021/07/17 08:46:25;;;;;;;10.90;5.37;;;;;;;27.46;51.22;94392.43;1654937;86;21490;-56
2021/07/17 08:48:55;;;;;;;10.88;5.45;;;;;;;27.63;49.98;94390.55;1637916;85;21132;-57
2021/07/17 08:51:22;;;;;;;9.38;5.20;;;;;;;27.79;48.18;94389.20;1673861;85;21084;-57
2021/07/17 08:53:49;;;;;;;11.63;6.05;;;;;;;27.87;48.29;94385.72;1663545;85;21073;-57
2021/07/17 08:56:16;;;;;;;10.80;6.20;;;;;;;27.96;48.17;94387.95;1661832;85;21229;-57
2021/07/17 08:58:43;;;;;;;15.95;6.90;;;;;;;28.06;47.45;94382.54;1660406;85;21543;-56
2021/07/17 09:01:15;;;;;;;7.72;5.15;;;;;;;28.14;47.47;94385.34;1662065;85;20990;-56
2021/07/17 09:03:42;;;;;;;10.10;5.20;;;;;;;28.22;46.51;94388.25;1666539;85;21082;-57
2021/07/17 09:06:10;;;;;;;10.28;7.10;;;;;;;28.31;47.29;94386.92;1660443;85;21447;-57
2021/07/17 09:08:38;;;;;;;19.85;5.87;;;;;;;28.40;46.46;94383.51;1666579;85;21022;-57
2021/07/17 09:11:05;;;;;;;11.97;5.87;;;;;;;28.50;45.82;94380.14;1668007;85;21530;-58
2021/07/17 09:13:35;;;;;;;8.13;5.20;;;;;;;28.58;47.00;94377.37;1655159;86;20982;-57
2021/07/17 09:16:13;;;;;;;13.30;5.37;;;;;;;28.71;45.61;94372.88;1669443;85;21624;-57
2021/07/17 09:18:48;;;;;;;12.55;5.60;;;;;;;28.82;46.75;94371.67;1661094;85;21296;-56
2021/07/17 09:21:26;;;;;;;8.85;5.10;;;;;;;29.00;47.39;94369.80;1654543;85;21523;-56
2021/07/17 09:24:03;;;;;;;13.13;4.97;;;;;;;29.21;45.81;94370.22;1657405;84;21188;-58
2021/07/17 09:26:35;;;;;;;14.20;5.08;;;;;;;29.43;45.37;94364.25;1666196;85;21469;-56
2021/07/17 09:29:10;;;;;;;13.65;4.60;;;;;;;29.64;45.04;94360.44;1658744;85;20990;-57
2021/07/17 09:31:56;;;;;;;10.00;5.05;;;;;;;29.87;44.36;94365.22;1672164;85;20986;-56
2021/07/17 09:34:26;;;;;;;8.73;4.42;;;;;;;30.07;42.36;94370.49;1663897;84;21144;-56
2021/07/17 09:37:09;;;;;;;14.70;4.87;;;;;;;30.22;40.98;94361.16;1636714;85;21030;-55
2021/07/17 09:39:47;;;;;;;12.30;4.37;;;;;;;30.35;41.79;94365.05;1664749;85;21881;-58
2021/07/17 09:42:16;;;;;;;9.35;5.00;;;;;;;30.44;41.84;94357.29;1661205;85;21046;-57
2021/07/17 09:44:43;;;;;;;12.00;5.08;;;;;;;30.55;41.65;94358.20;1664274;85;21125;-57
2021/07/17 09:47:22;;;;;;;9.38;4.28;;;;;;;30.63;41.41;94356.69;1664336;85;21259;-57
2021/07/17 09:49:50;;;;;;;15.18;4.97;;;;;;;30.65;40.46;94357.61;1658987;85;20975;-58
2021/07/17 09:52:20;;;;;;;10.43;4.95;;;;;;;30.59;41.09;94355.70;1636171;85;21566;-56
2021/07/17 09:55:14;;;;;;;10.98;5.35;;;;;;;30.63;41.43;94357.45;1674111;85;21049;-57
2021/07/17 09:57:41;;;;;;;8.23;4.00;;;;;;;30.75;41.14;94353.41;1670525;85;20991;-58
2021/07/17 10:00:15;;;;;;;7.75;4.25;;;;;;;30.70;40.66;94354.43;1660859;85;21943;-56
2021/07/17 10:02:41;;;;;;;15.10;5.22;;;;;;;30.59;40.44;94363.47;1667269;85;21499;-55
2021/07/17 10:05:11;;;;;;;17.55;5.83;;;;;;;30.48;40.15;94356.19;1667254;85;21095;-59
2021/07/17 10:07:37;;;;;;;12.40;5.03;;;;;;;30.48;39.76;94351.93;1657789;85;21033;-57
2021/07/17 10:10:06;;;;;;;15.00;4.67;;;;;;;30.54;40.24;94350.25;1654233;86;21592;-56
2021/07/17 10:12:40;;;;;;;17.48;5.25;;;;;;;30.64;40.38;94346.16;1654577;86;21804;-56
2021/07/17 10:15:15;;;;;;;19.82;4.85;;;;;;;30.77;40.38;94345.80;1662641;85;21057;-56
2021/07/17 10:17:44;;;;;;;9.63;4.78;;;;;;;30.92;40.36;94336.30;1618521;85;21030;-57
2021/07/17 10:20:14;;;;;;;16.02;5.28;;;;;;;31.00;40.22;94336.27;1631051;86;20970;-56
2021/07/17 10:22:42;;;;;;;11.50;5.08;;;;;;;31.06;39.96;94339.58;1635809;86;20981;-56
2021/07/17 10:25:11;;;;;;;11.08;5.50;;;;;;;31.05;40.03;94333.09;1628392;86;21180;-57
2021/07/17 10:27:38;;;;;;;7.83;4.95;;;;;;;31.00;40.26;94337.70;1629319;87;21061;-57
2021/07/17 10:30:08;;;;;;;12.00;4.15;;;;;;;31.00;39.85;94334.09;1628756;86;21041;-56
2021/07/17 10:32:34;;;;;;;9.13;4.83;;;;;;;31.09;39.20;94338.39;1630420;87;21005;-57
2021/07/17 10:35:02;;;;;;;7.42;4.47;;;;;;;31.30;38.29;94335.84;1629379;87;21014;-58
2021/07/17 10:37:33;;;;;;;8.58;4.80;;;;;;;31.55;37.65;94328.48;1629060;87;21521;-56
2021/07/17 10:40:13;;;;;;;12.10;4.80;;;;;;;31.73;37.57;94324.20;1628575;86;21628;-56
2021/07/17 10:42:44;;;;;;;12.78;5.45;;;;;;;31.97;39.67;94328.21;1606886;88;21166;-56
2021/07/17 10:45:14;;;;;;;13.75;4.62;;;;;;;32.36;39.21;94329.75;1629586;87;21482;-56
2021/07/17 10:47:41;;;;;;;11.60;5.50;;;;;;;32.59;38.40;94332.20;1637958;87;21085;-56
2021/07/17 10:50:12;;;;;;;10.35;5.50;;;;;;;32.80;37.25;94330.91;1632009;87;21244;-60
2021/07/17 10:52:43;;;;;;;11.00;4.80;;;;;;;33.02;38.04;94331.77;1630413;88;21601;-56
2021/07/17 10:55:26;;;;;;;10.68;5.15;;;;;;;33.07;38.02;94329.26;1630842;88;20974;-57
2021/07/17 10:57:53;;;;;;;10.80;4.97;;;;;;;33.20;37.92;94331.66;1630714;87;20987;-58
2021/07/17 11:00:47;;;;;;;11.60;5.45;;;;;;;33.32;37.40;94331.09;1631259;87;21137;-57
2021/07/17 11:03:22;;;;;;;7.40;4.90;;;;;;;33.52;37.48;94334.66;1629054;87;21939;-57
2021/07/17 11:05:49;;;;;;;12.47;5.20;;;;;;;33.65;37.21;94335.56;1629988;87;21449;-58
2021/07/17 11:08:35;;;;;;;15.72;5.60;;;;;;;33.76;36.97;94329.90;1630106;87;21203;-55
2021/07/17 11:11:22;;;;;;;8.28;5.58;;;;;;;33.50;36.28;94323.80;1629788;87;21101;-58
2021/07/17 11:13:49;;;;;;;11.00;5.22;;;;;;;33.42;36.65;94321.79;1629318;87;21082;-55
2021/07/17 11:16:38;;;;;;;14.07;4.40;;;;;;;33.20;36.70;94321.67;1629798;87;21206;-57
2021/07/17 11:19:25;;;;;;;7.28;4.45;;;;;;;33.35;36.48;94317.77;1630627;87;21544;-58
2021/07/17 11:21:56;;;;;;;13.40;4.70;;;;;;;33.59;35.46;94312.99;1603805;88;21037;-58
2021/07/17 11:24:26;;;;;;;15.55;4.75;;;;;;;34.11;35.70;94319.51;1629885;86;21384;-58